Voornediep — PBEX — position and weather

sailwx.info

Track history (hours):
 
Tides and Currents Weather Stations Pressure Air Temp Water Temp Dewpoint Dewpoint Depression Visibility Wind Speed Wind Dir Waves Ship Positions

Voornediep

Last reported at 2018-Jan-21 00:52 UTC. Time now 2018-Jan-21 01:13 UTC.
Position N 39°16' W 009°50'.

Length 120 m; draft 6 m.

Type: Cargo ship. MMSI: 246210000.

Date/timePositionNaut miles runAvg speedWind from/ knotsBaromVisibWave heightAir tempDewpointWater temp
2018-Jan-21 00:52N 39°16' W 009°50'412.1
2018-Jan-21 00:30N 39°12' W 009°50'612.2
2018-Jan-21 00:00N 39°06' W 009°50'612.1
2018-Jan-20 23:30N 39°00' W 009°50'612.1
2018-Jan-20 23:00N 38°54' W 009°51'612.0
2018-Jan-20 22:30N 38°48' W 009°51'611.9
2018-Jan-20 21:59N 38°42' W 009°50'611.7
2018-Jan-20 21:31N 38°37' W 009°48'611.8
2018-Jan-20 21:00N 38°31' W 009°45'611.5
2018-Jan-20 20:30N 38°26' W 009°43'611.5
2018-Jan-20 19:57N 38°19' W 009°42'511.5
2018-Jan-20 19:30N 38°14' W 009°41'611.6
2018-Jan-20 19:00N 38°08' W 009°40'611.7
2018-Jan-20 18:30N 38°03' W 009°39'611.7
2018-Jan-20 18:00N 37°57' W 009°37'611.6
2018-Jan-20 17:30N 37°51' W 009°35'611.8
2018-Jan-20 17:00N 37°46' W 009°34'611.8
2018-Jan-20 16:30N 37°40' W 009°32'812.1
2018-Jan-20 15:50N 37°32' W 009°30'411.9
2018-Jan-20 15:30N 37°28' W 009°29'611.7
2018-Jan-20 15:00N 37°22' W 009°27'611.8
2018-Jan-20 14:30N 37°17' W 009°25'612.0
2018-Jan-20 14:00N 37°11' W 009°24'611.7
2018-Jan-20 13:30N 37°05' W 009°22'611.7
2018-Jan-20 12:59N 36°59' W 009°21'611.7
2018-Jan-20 12:30N 36°54' W 009°19'611.5
2018-Jan-20 12:00N 36°49' W 009°14'611.8
2018-Jan-20 11:30N 36°45' W 009°09'611.3
2018-Jan-20 11:00N 36°44' W 009°02'611.6
2018-Jan-20 10:30N 36°43' W 008°55'612.0
2018-Jan-20 10:00N 36°43' W 008°47'712.3
2018-Jan-20 09:28N 36°43' W 008°39'712.3
2018-Jan-20 08:55N 36°43' W 008°31'712.1
2018-Jan-20 08:23N 36°43' W 008°23'512.2
2018-Jan-20 08:00N 36°43' W 008°17'612.4
2018-Jan-20 07:30N 36°44' W 008°09'612.3
2018-Jan-20 07:00N 36°44' W 008°02'  
2018-Jan-12 15:00N 35°57' W 005°51'510.4
2018-Jan-12 14:29N 35°57' W 005°44'5 9.8
2018-Jan-12 14:00N 35°57' W 005°38'5 9.3
2018-Jan-12 13:30N 35°58' W 005°33'5 9.3
2018-Jan-12 13:00N 35°59' W 005°27'5 9.6
2018-Jan-12 12:30N 35°57' W 005°22'4 8.4
2018-Jan-12 12:00N 35°54' W 005°19'0 0.4
2018-Jan-12 11:30N 35°54' W 005°19'0 0.0
2018-Jan-12 11:00N 35°54' W 005°19'0 0.0
2018-Jan-12 10:30N 35°54' W 005°19'0 0.0
2018-Jan-12 10:00N 35°54' W 005°19'0 0.0
2018-Jan-12 09:30N 35°54' W 005°19'0 0.0
2018-Jan-12 09:00N 35°54' W 005°19'0 0.0
2018-Jan-12 08:30N 35°54' W 005°19'0 0.0
2018-Jan-12 08:00N 35°54' W 005°19'0 0.0
2018-Jan-12 07:30N 35°54' W 005°19'1 1.6
2018-Jan-12 07:00N 35°54' W 005°18'5 9.6
2018-Jan-12 06:30N 35°56' W 005°13'5 9.0
2018-Jan-12 05:59N 35°56' W 005°07'612.0
2018-Jan-12 05:28N 35°57' W 004°60'511.1
2018-Jan-12 04:59N 35°59' W 004°53'611.7
2018-Jan-12 04:28N 36°00' W 004°46'511.4
2018-Jan-12 04:00N 36°02' W 004°40'611.4
2018-Jan-12 03:30N 36°04' W 004°33'19710.0
2018-Jan-11 07:53N 37°23' W 000°49'411.2
2018-Jan-11 07:29N 37°26' W 000°45'610.9
2018-Jan-11 06:58N 37°30' W 000°39'511.3
2018-Jan-11 06:30N 37°34' W 000°34'611.4
2018-Jan-11 06:00N 37°38' W 000°30'611.3
2018-Jan-11 05:30N 37°43' W 000°26'  
Track history (hours):
 
Tides and Currents Weather Stations Pressure Air Temp Water Temp Dewpoint Dewpoint Depression Visibility Wind Speed Wind Dir Waves Ship Positions

Voornediep

Last reported at 2018-Jan-21 00:52 UTC. Time now 2018-Jan-21 01:13 UTC.
Position N 39°16' W 009°50'.

Length 120 m; draft 6 m.

Type: Cargo ship. MMSI: 246210000.

Date/timePositionNaut miles runAvg speedWind from/ knotsBaromVisibWave heightAir tempDewpointWater temp
2018-Jan-21 00:52N 39°16' W 009°50'412.1
2018-Jan-21 00:30N 39°12' W 009°50'612.2
2018-Jan-21 00:00N 39°06' W 009°50'612.1
2018-Jan-20 23:30N 39°00' W 009°50'612.1
2018-Jan-20 23:00N 38°54' W 009°51'612.0
2018-Jan-20 22:30N 38°48' W 009°51'611.9
2018-Jan-20 21:59N 38°42' W 009°50'611.7
2018-Jan-20 21:31N 38°37' W 009°48'611.8
2018-Jan-20 21:00N 38°31' W 009°45'611.5
2018-Jan-20 20:30N 38°26' W 009°43'611.5
2018-Jan-20 19:57N 38°19' W 009°42'511.5
2018-Jan-20 19:30N 38°14' W 009°41'611.6
2018-Jan-20 19:00N 38°08' W 009°40'611.7
2018-Jan-20 18:30N 38°03' W 009°39'611.7
2018-Jan-20 18:00N 37°57' W 009°37'611.6
2018-Jan-20 17:30N 37°51' W 009°35'611.8
2018-Jan-20 17:00N 37°46' W 009°34'611.8
2018-Jan-20 16:30N 37°40' W 009°32'812.1
2018-Jan-20 15:50N 37°32' W 009°30'411.9
2018-Jan-20 15:30N 37°28' W 009°29'611.7
2018-Jan-20 15:00N 37°22' W 009°27'611.8
2018-Jan-20 14:30N 37°17' W 009°25'612.0
2018-Jan-20 14:00N 37°11' W 009°24'611.7
2018-Jan-20 13:30N 37°05' W 009°22'611.7
2018-Jan-20 12:59N 36°59' W 009°21'611.7
2018-Jan-20 12:30N 36°54' W 009°19'611.5
2018-Jan-20 12:00N 36°49' W 009°14'611.8
2018-Jan-20 11:30N 36°45' W 009°09'611.3
2018-Jan-20 11:00N 36°44' W 009°02'611.6
2018-Jan-20 10:30N 36°43' W 008°55'612.0
2018-Jan-20 10:00N 36°43' W 008°47'712.3
2018-Jan-20 09:28N 36°43' W 008°39'712.3
2018-Jan-20 08:55N 36°43' W 008°31'712.1
2018-Jan-20 08:23N 36°43' W 008°23'512.2
2018-Jan-20 08:00N 36°43' W 008°17'612.4
2018-Jan-20 07:30N 36°44' W 008°09'612.3
2018-Jan-20 07:00N 36°44' W 008°02'  
2018-Jan-12 15:00N 35°57' W 005°51'510.4
2018-Jan-12 14:29N 35°57' W 005°44'5 9.8
2018-Jan-12 14:00N 35°57' W 005°38'5 9.3
2018-Jan-12 13:30N 35°58' W 005°33'5 9.3
2018-Jan-12 13:00N 35°59' W 005°27'5 9.6
2018-Jan-12 12:30N 35°57' W 005°22'4 8.4
2018-Jan-12 12:00N 35°54' W 005°19'0 0.4
2018-Jan-12 11:30N 35°54' W 005°19'0 0.0
2018-Jan-12 11:00N 35°54' W 005°19'0 0.0
2018-Jan-12 10:30N 35°54' W 005°19'0 0.0
2018-Jan-12 10:00N 35°54' W 005°19'0 0.0
2018-Jan-12 09:30N 35°54' W 005°19'0 0.0
2018-Jan-12 09:00N 35°54' W 005°19'0 0.0
2018-Jan-12 08:30N 35°54' W 005°19'0 0.0
2018-Jan-12 08:00N 35°54' W 005°19'0 0.0
2018-Jan-12 07:30N 35°54' W 005°19'1 1.6
2018-Jan-12 07:00N 35°54' W 005°18'5 9.6
2018-Jan-12 06:30N 35°56' W 005°13'5 9.0
2018-Jan-12 05:59N 35°56' W 005°07'612.0
2018-Jan-12 05:28N 35°57' W 004°60'511.1
2018-Jan-12 04:59N 35°59' W 004°53'611.7
2018-Jan-12 04:28N 36°00' W 004°46'511.4
2018-Jan-12 04:00N 36°02' W 004°40'611.4
2018-Jan-12 03:30N 36°04' W 004°33'19710.0
2018-Jan-11 07:53N 37°23' W 000°49'411.2
2018-Jan-11 07:29N 37°26' W 000°45'610.9
2018-Jan-11 06:58N 37°30' W 000°39'511.3
2018-Jan-11 06:30N 37°34' W 000°34'611.4
2018-Jan-11 06:00N 37°38' W 000°30'611.3
2018-Jan-11 05:30N 37°43' W 000°26'  

Dump ship's entire track history